createdAt,value
2022-11-24T00:02:06.225Z,2.33
2022-11-24T00:04:53.037Z,1.77
2022-11-24T00:07:39.779Z,1.97
2022-11-24T00:10:27.028Z,2.10
2022-11-24T00:13:13.716Z,1.90
2022-11-24T00:16:00.502Z,1.90
2022-11-24T00:18:47.450Z,2.30
2022-11-24T00:21:38.259Z,2.27
2022-11-24T00:24:25.259Z,1.97
2022-11-24T00:27:11.977Z,1.80
2022-11-24T00:29:58.678Z,2.23
2022-11-24T00:32:48.892Z,1.90
2022-11-24T00:35:35.670Z,2.10
2022-11-24T00:38:22.413Z,1.97
2022-11-24T00:41:09.387Z,1.90
2022-11-24T00:43:56.183Z,2.30
2022-11-24T00:46:43.901Z,1.70
2022-11-24T00:49:30.714Z,2.07
2022-11-24T00:52:17.467Z,1.90
2022-11-24T00:55:04.195Z,1.90
2022-11-24T00:57:50.924Z,1.90
2022-11-24T01:00:38.352Z,2.33
2022-11-24T01:03:25.059Z,2.17
2022-11-24T01:06:11.768Z,2.20
2022-11-24T01:09:00.741Z,2.07
2022-11-24T01:11:51.709Z,2.00
2022-11-24T01:14:39.072Z,1.80
2022-11-24T01:17:25.812Z,1.87
2022-11-24T01:20:12.611Z,1.90
2022-11-24T01:22:59.393Z,2.40
2022-11-24T01:25:46.135Z,1.87
2022-11-24T01:28:33.972Z,2.13
2022-11-24T01:31:02.732Z,1.63
2022-11-24T01:33:49.556Z,2.23
2022-11-24T01:36:36.453Z,1.80
2022-11-24T01:39:23.269Z,1.73
2022-11-24T01:42:09.944Z,2.20
2022-11-24T01:44:56.762Z,1.80
2022-11-24T01:47:54.466Z,2.40
2022-11-24T01:50:41.753Z,1.33
2022-11-24T01:53:30.351Z,1.90
2022-11-24T01:56:18.123Z,1.93
2022-11-24T01:59:07.081Z,1.87
2022-11-24T02:01:54.543Z,1.83
2022-11-24T02:04:47.154Z,1.73
2022-11-24T02:07:34.986Z,1.70
2022-11-24T02:10:30.504Z,1.70
2022-11-24T02:13:19.099Z,2.40
2022-11-24T02:16:28.671Z,2.23
2022-11-24T02:19:15.483Z,1.67
2022-11-24T02:22:02.182Z,1.77
2022-11-24T02:25:35.602Z,1.67
2022-11-24T02:28:27.840Z,2.07
2022-11-24T02:31:14.896Z,1.97
2022-11-24T02:34:01.995Z,1.60
2022-11-24T02:36:48.802Z,1.83
2022-11-24T02:39:35.997Z,1.70
2022-11-24T02:42:33.637Z,2.00
2022-11-24T02:45:21.402Z,1.90
2022-11-24T02:48:08.280Z,2.37
2022-11-24T02:50:54.966Z,1.70
2022-11-24T02:53:41.697Z,1.97
2022-11-24T02:56:08.674Z,1.97
2022-11-24T02:58:55.381Z,2.20
2022-11-24T03:01:42.159Z,1.70
2022-11-24T03:04:28.979Z,2.00
2022-11-24T03:07:15.944Z,2.07
2022-11-24T03:10:02.722Z,2.00
2022-11-24T03:12:49.426Z,1.80
2022-11-24T03:15:36.391Z,2.00
2022-11-24T03:18:23.878Z,2.23
2022-11-24T03:21:10.672Z,1.80
2022-11-24T03:23:37.521Z,2.37
2022-11-24T03:26:33.199Z,2.17
2022-11-24T03:29:20.167Z,1.97
2022-11-24T03:32:06.883Z,2.20
2022-11-24T03:34:53.707Z,1.97
2022-11-24T03:37:40.479Z,2.23
2022-11-24T03:40:27.568Z,1.90
2022-11-24T03:43:14.262Z,2.00
2022-11-24T03:46:01.026Z,2.20
2022-11-24T03:48:47.826Z,1.67
2022-11-24T03:51:34.531Z,1.90
2022-11-24T03:54:21.263Z,1.80
2022-11-24T03:57:08.095Z,1.80
2022-11-24T03:59:54.832Z,1.97
2022-11-24T04:02:41.601Z,1.73
2022-11-24T04:05:28.726Z,1.60
2022-11-24T04:08:16.770Z,1.93
2022-11-24T04:11:03.964Z,1.80
2022-11-24T04:13:50.674Z,2.00
2022-11-24T04:16:37.456Z,1.73
2022-11-24T04:19:24.470Z,1.93
2022-11-24T04:22:11.207Z,1.83
2022-11-24T04:24:57.914Z,1.47
2022-11-24T04:27:44.644Z,1.60
2022-11-24T04:30:31.587Z,1.50
2022-11-24T04:33:18.319Z,1.50
2022-11-24T04:36:05.063Z,1.40
2022-11-24T04:39:25.776Z,1.70
2022-11-24T04:41:58.452Z,1.23
2022-11-24T04:44:45.265Z,1.20
2022-11-24T04:47:43.104Z,1.10
2022-11-24T04:50:30.064Z,1.20
2022-11-24T04:53:16.835Z,1.27
2022-11-24T04:56:03.571Z,1.07
2022-11-24T04:58:50.332Z,1.00
2022-11-24T05:01:37.127Z,1.23
2022-11-24T05:04:23.989Z,1.10
2022-11-24T05:07:14.996Z,1.03
2022-11-24T05:10:03.343Z,1.10
2022-11-24T05:12:51.505Z,0.97
2022-11-24T05:15:38.318Z,0.90
2022-11-24T05:18:30.797Z,1.00
2022-11-24T05:21:20.639Z,1.20
2022-11-24T05:24:07.475Z,1.00
2022-11-24T05:26:54.230Z,1.00
2022-11-24T05:29:40.975Z,1.10
2022-11-24T05:32:27.731Z,0.80
2022-11-24T05:35:14.453Z,1.20
2022-11-24T05:38:01.191Z,0.83
2022-11-24T05:40:48.372Z,1.00
2022-11-24T05:43:36.839Z,1.17
2022-11-24T05:46:24.806Z,1.27
2022-11-24T05:49:11.557Z,0.97
2022-11-24T05:51:58.280Z,1.20
2022-11-24T05:54:45.063Z,0.90
2022-11-24T05:57:31.743Z,0.93
2022-11-24T06:00:18.464Z,1.10
2022-11-24T06:03:05.315Z,1.23
2022-11-24T06:05:52.214Z,1.20
2022-11-24T06:08:38.940Z,1.10
2022-11-24T06:11:37.754Z,0.93
2022-11-24T06:14:24.518Z,1.33
2022-11-24T06:17:11.258Z,1.23
2022-11-24T06:19:58.074Z,0.90
2022-11-24T06:22:44.806Z,1.00
2022-11-24T06:25:11.561Z,0.97
2022-11-24T06:27:58.319Z,1.10
2022-11-24T06:30:45.014Z,1.30
2022-11-24T06:33:31.737Z,1.00
2022-11-24T06:36:23.546Z,1.10
2022-11-24T06:39:10.278Z,0.97
2022-11-24T06:41:57.006Z,1.17
2022-11-24T06:44:43.797Z,0.93
2022-11-24T06:47:30.482Z,1.20
2022-11-24T06:50:17.229Z,1.10
2022-11-24T06:53:04.463Z,0.93
2022-11-24T06:55:51.197Z,0.97
2022-11-24T06:58:37.959Z,1.07
2022-11-24T07:01:24.827Z,1.30
2022-11-24T07:04:12.907Z,1.20
2022-11-24T07:07:02.420Z,1.33
2022-11-24T07:09:49.111Z,1.37
2022-11-24T07:12:35.945Z,1.30
2022-11-24T07:15:02.749Z,1.50
2022-11-24T07:17:49.542Z,1.67
2022-11-24T07:20:36.732Z,1.50
2022-11-24T07:23:23.495Z,1.43
2022-11-24T07:26:10.219Z,1.60
2022-11-24T07:28:57.648Z,1.80
2022-11-24T07:31:44.448Z,1.47
2022-11-24T07:34:31.397Z,1.27
2022-11-24T07:37:18.224Z,1.50
2022-11-24T07:40:04.956Z,1.67
2022-11-24T07:42:51.710Z,1.43
2022-11-24T07:45:38.503Z,1.60
2022-11-24T07:48:25.519Z,1.20
2022-11-24T07:51:12.488Z,1.37
2022-11-24T07:53:59.614Z,1.67
2022-11-24T07:56:46.348Z,1.80
2022-11-24T07:59:33.041Z,1.57
2022-11-24T08:02:19.756Z,1.50
2022-11-24T08:05:06.498Z,1.53
2022-11-24T08:07:53.343Z,1.50
2022-11-24T08:10:40.264Z,1.77
2022-11-24T08:13:27.047Z,1.30
2022-11-24T08:16:13.862Z,1.63
2022-11-24T08:19:01.435Z,1.40
2022-11-24T08:21:48.160Z,1.57
2022-11-24T08:24:35.089Z,1.27
2022-11-24T08:27:22.141Z,1.57
2022-11-24T08:30:08.939Z,1.50
2022-11-24T08:32:55.656Z,1.20
2022-11-24T08:35:42.372Z,1.37
2022-11-24T08:38:29.137Z,1.40
2022-11-24T08:41:23.669Z,1.67
2022-11-24T08:44:10.522Z,1.50
2022-11-24T08:46:57.385Z,1.37
2022-11-24T08:49:44.180Z,1.40
2022-11-24T08:52:30.886Z,1.80
2022-11-24T08:55:17.669Z,1.33
2022-11-24T08:58:04.464Z,1.57
2022-11-24T09:00:51.167Z,1.57
2022-11-24T09:03:37.866Z,1.60
2022-11-24T09:06:25.634Z,1.47
2022-11-24T09:09:14.472Z,1.50
2022-11-24T09:12:01.217Z,1.70
2022-11-24T09:14:48.133Z,1.43
2022-11-24T09:17:34.851Z,1.60
2022-11-24T09:20:21.552Z,1.87
2022-11-24T09:23:08.396Z,1.43
2022-11-24T09:25:55.140Z,1.43
2022-11-24T09:28:41.847Z,1.70
2022-11-24T09:31:31.617Z,1.63
2022-11-24T09:34:18.371Z,1.37
2022-11-24T09:37:05.095Z,1.60
2022-11-24T09:39:51.879Z,1.50
2022-11-24T09:43:06.007Z,1.70
2022-11-24T09:46:12.531Z,1.60
2022-11-24T09:49:02.744Z,1.77
2022-11-24T09:51:52.147Z,1.60
2022-11-24T09:54:44.345Z,1.90
2022-11-24T09:57:37.262Z,1.90
2022-11-24T10:00:32.560Z,2.13
2022-11-24T10:03:19.343Z,1.93
2022-11-24T10:06:10.253Z,2.10
2022-11-24T10:09:14.079Z,1.90
2022-11-24T10:12:22.639Z,1.70
2022-11-24T10:15:39.479Z,2.10
2022-11-24T10:18:41.339Z,1.60
2022-11-24T10:21:46.655Z,1.77
2022-11-24T10:25:01.237Z,2.03
2022-11-24T10:27:57.551Z,1.80
2022-11-24T10:30:44.575Z,1.93
2022-11-24T10:33:38.647Z,1.90
2022-11-24T10:36:34.963Z,2.00
2022-11-24T10:39:59.637Z,1.80
2022-11-24T10:42:48.682Z,2.37
2022-11-24T10:45:40.504Z,1.97
2022-11-24T10:48:58.390Z,2.07
2022-11-24T10:51:51.147Z,2.17
2022-11-24T10:54:43.351Z,1.67
2022-11-24T10:57:47.963Z,1.90
2022-11-24T11:00:40.719Z,1.77
2022-11-24T11:03:39.352Z,1.97
2022-11-24T11:06:34.474Z,1.77
2022-11-24T11:09:27.250Z,1.90
2022-11-24T11:12:42.176Z,1.90
2022-11-24T11:15:42.180Z,1.87
2022-11-24T11:18:36.658Z,1.90
2022-11-24T11:21:23.937Z,2.00
2022-11-24T11:24:11.717Z,2.20
2022-11-24T11:26:59.237Z,2.20
2022-11-24T11:36:21.966Z,2.13
2022-11-24T11:39:08.867Z,2.50
2022-11-24T11:42:05.304Z,2.30
2022-11-24T11:45:01.963Z,2.13
2022-11-24T11:47:59.424Z,2.50
2022-11-24T11:51:23.255Z,1.63
2022-11-24T11:54:34.849Z,2.47
2022-11-24T11:57:39.665Z,2.20
2022-11-24T12:00:38.357Z,2.30
2022-11-24T12:03:33.972Z,2.23
2022-11-24T12:06:38.379Z,2.60
2022-11-24T12:10:06.550Z,2.13
2022-11-24T12:13:07.747Z,2.27
2022-11-24T12:16:12.539Z,2.20
2022-11-24T12:19:05.379Z,2.40
2022-11-24T12:22:02.034Z,3.10
2022-11-24T12:24:57.936Z,2.63
2022-11-24T12:28:02.881Z,2.83
2022-11-24T12:31:06.381Z,2.57
2022-11-24T12:34:04.123Z,2.90
2022-11-24T12:37:10.499Z,2.47
2022-11-24T12:40:09.773Z,2.83
2022-11-24T12:43:19.037Z,2.50
2022-11-24T12:46:30.582Z,2.93
2022-11-24T12:49:49.488Z,2.97
2022-11-24T12:52:57.218Z,2.43
2022-11-24T12:55:49.873Z,3.03
2022-11-24T12:58:52.780Z,2.33
2022-11-24T13:01:51.793Z,2.67
2022-11-24T13:05:17.441Z,2.40
2022-11-24T13:08:09.946Z,2.17
2022-11-24T13:10:58.607Z,2.57
2022-11-24T13:14:15.557Z,2.70
2022-11-24T13:17:31.155Z,2.47
2022-11-24T13:20:46.863Z,2.30
2022-11-24T13:23:44.602Z,2.70
2022-11-24T13:26:47.440Z,2.63
2022-11-24T13:29:52.843Z,2.83
2022-11-24T13:32:39.564Z,2.07
2022-11-24T13:35:35.412Z,2.43
2022-11-24T13:38:22.720Z,2.70
2022-11-24T13:41:27.754Z,2.20
2022-11-24T13:44:33.837Z,2.40
2022-11-24T13:47:24.667Z,2.60
2022-11-24T13:50:11.379Z,2.53
2022-11-24T13:53:17.743Z,2.30
2022-11-24T13:56:29.616Z,2.03
2022-11-24T13:59:23.110Z,2.37
2022-11-24T14:02:17.599Z,2.33
2022-11-24T14:05:04.468Z,2.57
2022-11-24T14:07:51.899Z,2.30
2022-11-24T14:10:44.566Z,2.00
2022-11-24T14:13:43.951Z,2.47
2022-11-24T14:16:30.643Z,2.10
2022-11-24T14:19:30.758Z,2.23
2022-11-24T14:21:57.791Z,2.50
2022-11-24T14:24:47.762Z,2.83
2022-11-24T14:27:37.108Z,2.60
2022-11-24T14:30:09.902Z,2.50
2022-11-24T14:32:37.920Z,2.53
2022-11-24T14:35:46.324Z,2.30
2022-11-24T14:38:33.687Z,2.07
2022-11-24T14:41:35.292Z,2.23
2022-11-24T14:44:39.974Z,2.80
2022-11-24T14:47:49.646Z,2.20
2022-11-24T14:50:19.732Z,2.37
2022-11-24T14:52:56.399Z,2.20
2022-11-24T14:55:51.531Z,2.40
2022-11-24T14:58:50.946Z,2.70
2022-11-24T15:01:46.836Z,2.50
2022-11-24T15:05:02.084Z,2.50
2022-11-24T15:07:50.022Z,2.37
2022-11-24T15:10:52.302Z,2.13
2022-11-24T15:13:44.915Z,2.13
2022-11-24T15:16:38.326Z,2.43
2022-11-24T15:19:25.280Z,2.30
2022-11-24T15:22:12.060Z,2.47
2022-11-24T15:25:14.473Z,2.60
2022-11-24T15:28:01.362Z,2.20
2022-11-24T15:30:49.364Z,2.50
2022-11-24T15:33:38.439Z,2.30
2022-11-24T15:36:25.328Z,2.47
2022-11-24T15:39:12.094Z,2.23
2022-11-24T15:41:58.876Z,2.83
2022-11-24T15:44:45.610Z,2.20
2022-11-24T15:47:32.460Z,2.73
2022-11-24T15:50:19.163Z,2.53
2022-11-24T15:53:07.460Z,2.70
2022-11-24T15:55:54.510Z,2.73
2022-11-24T15:58:41.214Z,2.70
2022-11-24T16:01:28.016Z,2.13
2022-11-24T16:04:14.771Z,2.53
2022-11-24T16:07:01.498Z,2.73
2022-11-24T16:09:48.202Z,2.87
2022-11-24T16:12:34.914Z,3.17
2022-11-24T16:15:21.639Z,2.73
2022-11-24T16:18:08.523Z,3.27
2022-11-24T16:20:55.484Z,2.40
2022-11-24T16:23:42.185Z,2.87
2022-11-24T16:26:30.198Z,2.87
2022-11-24T16:29:16.896Z,3.03
2022-11-24T16:32:03.664Z,3.50
2022-11-24T16:34:50.446Z,2.87
2022-11-24T16:37:37.534Z,3.23
2022-11-24T16:40:25.503Z,2.60
2022-11-24T16:43:12.214Z,2.77
2022-11-24T16:45:58.983Z,3.07
2022-11-24T16:48:45.759Z,3.30
2022-11-24T16:51:35.178Z,2.87
2022-11-24T16:54:22.812Z,2.47
2022-11-24T16:57:14.605Z,3.30
2022-11-24T17:00:02.391Z,2.70
2022-11-24T17:02:49.183Z,3.10
2022-11-24T17:05:35.948Z,2.80
2022-11-24T17:08:22.700Z,2.63
2022-11-24T17:11:09.405Z,2.63
2022-11-24T17:13:56.667Z,2.90
2022-11-24T17:16:45.005Z,2.67
2022-11-24T17:19:31.743Z,2.60
2022-11-24T17:22:18.587Z,3.30
2022-11-24T17:25:05.357Z,3.00
2022-11-24T17:27:52.052Z,3.07
2022-11-24T17:30:38.932Z,2.63
2022-11-24T17:33:25.936Z,2.53
2022-11-24T17:36:12.670Z,2.87
2022-11-24T17:38:59.430Z,2.70
2022-11-24T17:41:46.704Z,2.57
2022-11-24T17:44:33.711Z,2.60
2022-11-24T17:47:20.709Z,3.00
2022-11-24T17:50:07.416Z,3.37
2022-11-24T17:52:54.279Z,2.87
2022-11-24T17:55:41.467Z,2.80
2022-11-24T17:58:28.194Z,3.07
2022-11-24T18:01:14.977Z,2.83
2022-11-24T18:04:02.002Z,2.93
2022-11-24T18:06:48.797Z,2.60
2022-11-24T18:09:35.508Z,3.03
2022-11-24T18:12:22.280Z,2.53
2022-11-24T18:15:08.965Z,2.80
2022-11-24T18:17:55.705Z,3.43
2022-11-24T18:20:42.446Z,3.00
2022-11-24T18:23:29.172Z,3.10
2022-11-24T18:26:21.211Z,3.60
2022-11-24T18:29:08.055Z,2.97
2022-11-24T18:31:55.353Z,2.77
2022-11-24T18:34:42.127Z,3.37
2022-11-24T18:37:28.867Z,3.03
2022-11-24T18:40:15.597Z,2.80
2022-11-24T18:43:02.286Z,3.17
2022-11-24T18:45:49.106Z,3.07
2022-11-24T18:48:36.322Z,3.10
2022-11-24T18:51:23.637Z,2.73
2022-11-24T18:54:12.678Z,2.67
2022-11-24T18:57:03.357Z,3.33
2022-11-24T18:59:50.550Z,3.07
2022-11-24T19:02:37.392Z,2.87
2022-11-24T19:05:24.338Z,2.60
2022-11-24T19:08:11.064Z,2.70
2022-11-24T19:11:01.822Z,2.80
2022-11-24T19:13:48.582Z,2.80
2022-11-24T19:16:36.824Z,2.97
2022-11-24T19:19:23.814Z,3.23
2022-11-24T19:22:10.540Z,3.00
2022-11-24T19:24:57.384Z,3.07
2022-11-24T19:27:44.196Z,3.33
2022-11-24T19:30:32.644Z,2.83
2022-11-24T19:33:19.445Z,3.30
2022-11-24T19:36:06.179Z,3.00
2022-11-24T19:38:54.704Z,2.67
2022-11-24T19:41:43.945Z,2.80
2022-11-24T19:44:32.936Z,3.00
2022-11-24T19:47:19.742Z,3.07
2022-11-24T19:50:10.339Z,2.90
2022-11-24T19:52:57.295Z,3.13
2022-11-24T19:55:44.007Z,2.73
2022-11-24T19:58:30.696Z,2.70
2022-11-24T20:01:35.373Z,2.97
2022-11-24T20:04:25.962Z,2.63
2022-11-24T20:07:12.688Z,2.90
2022-11-24T20:10:04.389Z,2.87
2022-11-24T20:12:54.217Z,3.00
2022-11-24T20:15:40.946Z,2.30
2022-11-24T20:18:27.670Z,2.80
2022-11-24T20:21:14.399Z,2.73
2022-11-24T20:24:02.332Z,3.07
2022-11-24T20:26:52.648Z,2.77
2022-11-24T20:29:45.285Z,2.63
2022-11-24T20:32:33.570Z,2.60
2022-11-24T20:35:20.294Z,2.30
2022-11-24T20:38:07.023Z,2.37
2022-11-24T20:40:53.721Z,3.03
2022-11-24T20:43:40.419Z,2.77
2022-11-24T20:46:30.335Z,2.87
2022-11-24T20:49:17.817Z,3.33
2022-11-24T20:52:05.073Z,3.03
2022-11-24T20:54:51.793Z,2.90
2022-11-24T20:57:38.507Z,3.13
2022-11-24T21:00:26.009Z,2.83
2022-11-24T21:03:12.700Z,2.83
2022-11-24T21:05:59.448Z,3.10
2022-11-24T21:08:46.307Z,3.20
2022-11-24T21:11:34.329Z,2.37
2022-11-24T21:14:21.235Z,2.70
2022-11-24T21:17:07.962Z,3.10
2022-11-24T21:19:59.581Z,2.73
2022-11-24T21:22:47.709Z,2.70
2022-11-24T21:25:34.826Z,2.70
2022-11-24T21:28:21.649Z,2.73
2022-11-24T21:31:08.543Z,2.93
2022-11-24T21:34:00.875Z,2.93
2022-11-24T21:36:47.621Z,2.37
2022-11-24T21:39:35.200Z,2.40
2022-11-24T21:42:21.929Z,2.90
2022-11-24T21:45:08.689Z,2.90
2022-11-24T21:47:55.394Z,2.90
2022-11-24T21:50:42.802Z,3.10
2022-11-24T21:53:29.537Z,3.13
2022-11-24T21:56:21.215Z,2.23
2022-11-24T21:59:13.815Z,2.80
2022-11-24T22:02:00.583Z,2.53
2022-11-24T22:04:47.327Z,2.30
2022-11-24T22:07:34.243Z,2.70
2022-11-24T22:10:21.097Z,2.43
2022-11-24T22:12:47.915Z,2.53
2022-11-24T22:15:14.684Z,2.43
2022-11-24T22:18:01.394Z,2.57
2022-11-24T22:20:48.113Z,2.43
2022-11-24T22:23:34.932Z,2.27
2022-11-24T22:26:26.307Z,2.40
2022-11-24T22:29:17.787Z,2.77
2022-11-24T22:32:04.671Z,2.73
2022-11-24T22:34:51.499Z,2.33
2022-11-24T22:37:38.225Z,2.60
2022-11-24T22:40:25.600Z,2.27
2022-11-24T22:43:12.319Z,2.60
2022-11-24T22:45:59.072Z,2.47
2022-11-24T22:48:46.975Z,2.40
2022-11-24T22:51:39.007Z,2.83
2022-11-24T22:54:26.274Z,2.83
2022-11-24T22:57:12.976Z,2.50
2022-11-24T22:59:59.700Z,3.27
2022-11-24T23:02:46.493Z,2.77
2022-11-24T23:05:33.283Z,2.87
2022-11-24T23:08:20.013Z,2.60
2022-11-24T23:11:06.710Z,2.63
2022-11-24T23:13:53.914Z,2.87
2022-11-24T23:16:41.439Z,2.97
2022-11-24T23:19:28.799Z,2.57
2022-11-24T23:22:15.503Z,2.73
2022-11-24T23:25:02.222Z,2.93
2022-11-24T23:27:48.914Z,3.10
2022-11-24T23:30:35.796Z,2.73
2022-11-24T23:33:22.508Z,2.93
2022-11-24T23:36:09.247Z,3.03
2022-11-24T23:38:56.837Z,3.07
2022-11-24T23:41:45.646Z,2.80
2022-11-24T23:44:32.470Z,2.70
2022-11-24T23:47:19.319Z,2.70
2022-11-24T23:50:06.035Z,2.70
2022-11-24T23:52:52.733Z,3.33
2022-11-24T23:55:39.416Z,3.07
2022-11-24T23:58:26.135Z,2.80
